Time;durP1;ratioP1;P1;durP2;ratioP2;P2;SDS_P1;SDS_P2;PMS_P1;PMS_P2;Temp;Humidity;BMP_temperature;BMP_pressure;BME280_temperature;BME280_humidity;BME280_pressure;Samples;Min_cycle;Max_cycle;Signal;HPM_P1;HPM_P2
2023/11/18 05:39:11;;;;;;;15.90;7.00;;;;;;;1.92;77.71;99054.30;86039;1276;95580;31
2023/11/18 05:41:40;;;;;;;16.60;7.10;;;;;;;1.94;77.55;99056.84;107078;1276;107774;-75
2023/11/18 05:44:16;;;;;;;15.20;7.10;;;;;;;1.96;77.68;99054.15;106873;1274;94334;-75
2023/11/18 05:46:51;;;;;;;17.60;7.70;;;;;;;2.01;77.71;99062.20;106880;1274;95650;-76
2023/11/18 05:49:22;;;;;;;17.50;8.30;;;;;;;2.05;77.95;99067.97;106901;1277;109796;-76
2023/11/18 05:51:54;;;;;;;19.60;8.30;;;;;;;2.07;77.77;99073.83;106966;1274;95267;-75
2023/11/18 05:54:27;;;;;;;17.20;7.90;;;;;;;2.07;77.55;99076.10;106932;1277;107554;-78
2023/11/18 05:56:59;;;;;;;17.10;7.60;;;;;;;2.10;77.52;99078.48;106794;1276;94301;-78
2023/11/18 05:59:35;;;;;;;29.70;8.80;;;;;;;2.07;77.70;99077.87;106898;1276;94299;-78
2023/11/18 06:02:04;;;;;;;18.30;8.50;;;;;;;2.03;77.63;99078.37;106989;1276;109986;-78
2023/11/18 06:04:37;;;;;;;11.00;5.00;;;;;;;2.04;77.71;99085.16;106894;1274;95567;-77
2023/11/18 06:07:09;;;;;;;19.20;8.50;;;;;;;2.05;77.81;99087.74;106937;1276;107935;-77
2023/11/18 06:09:50;;;;;;;18.50;7.70;;;;;;;2.08;77.83;99088.33;106828;1277;94332;-78
2023/11/18 06:12:39;;;;;;;;;;;;;;;;;;;;;
2023/11/18 06:15:14;;;;;;;16.70;7.50;;;;;;;2.10;77.63;99100.33;106924;1274;109955;-80
2023/11/18 06:17:49;;;;;;;18.80;8.80;;;;;;;2.11;77.99;99103.26;106825;1274;95398;-78
2023/11/18 06:20:17;;;;;;;19.80;9.00;;;;;;;2.08;77.36;99105.30;106893;1273;108121;-78
2023/11/18 06:22:45;;;;;;;19.60;8.70;;;;;;;2.07;77.84;99106.73;106872;1273;94451;-79
2023/11/18 06:25:13;;;;;;;18.40;8.80;;;;;;;2.09;77.87;99107.71;106884;1277;94539;-77
2023/11/18 06:27:47;;;;;;;22.90;10.30;;;;;;;2.08;77.53;99111.06;107124;1274;110935;-78
2023/11/18 06:30:17;;;;;;;24.90;11.90;;;;;;;2.12;77.61;99113.88;106877;1274;94381;-78
2023/11/18 06:32:48;;;;;;;23.10;10.90;;;;;;;2.12;77.81;99114.58;106897;1273;107806;-80
2023/11/18 06:35:34;;;;;;;;;;;;;;;;;;;;;
2023/11/18 06:38:05;;;;;;;23.00;10.40;;;;;;;2.18;77.89;99120.16;106924;1276;94734;-78
2023/11/18 06:40:51;;;;;;;24.30;10.10;;;;;;;2.22;77.73;99126.69;106687;1274;110806;-78
2023/11/18 06:43:20;;;;;;;25.90;12.00;;;;;;;2.24;77.90;99128.17;107075;1274;95510;-77
2023/11/18 06:45:53;;;;;;;32.50;13.60;;;;;;;2.25;77.81;99135.99;106865;1274;107770;-78
2023/11/18 06:48:22;;;;;;;27.40;12.20;;;;;;;2.25;77.77;99132.51;106825;1273;94923;-78
2023/11/18 06:51:00;;;;;;;21.30;10.60;;;;;;;2.25;77.66;99135.14;106966;1276;94276;-83
2023/11/18 06:53:32;;;;;;;25.50;13.90;;;;;;;2.21;77.46;99140.50;106872;1273;109951;-78
2023/11/18 06:56:05;;;;;;;24.70;12.60;;;;;;;2.21;77.83;99139.80;106894;1273;95418;-78
2023/11/18 06:58:33;;;;;;;24.60;11.80;;;;;;;2.23;77.53;99144.48;106881;1273;107297;-78
2023/11/18 07:01:12;;;;;;;26.70;13.70;;;;;;;2.27;77.94;99148.88;106943;1273;94314;-78
2023/11/18 07:04:02;;;;;;;23.10;10.40;;;;;;;2.26;77.63;99154.50;106946;1274;94357;-80
2023/11/18 07:06:38;;;;;;;20.80;10.00;;;;;;;2.26;77.75;99160.79;107046;1273;109428;-78
2023/11/18 07:09:20;;;;;;;20.40;10.40;;;;;;;2.28;77.73;99163.02;106917;1273;95380;-80
2023/11/18 07:11:52;;;;;;;23.40;11.00;;;;;;;2.28;77.76;99161.95;106875;1273;107694;-79
2023/11/18 07:14:25;;;;;;;20.20;10.00;;;;;;;2.28;77.66;99165.09;106920;1273;94433;-78
2023/11/18 07:16:55;;;;;;;21.70;11.70;;;;;;;2.29;77.90;99168.05;107015;1272;94336;-79
2023/11/18 07:19:23;;;;;;;23.80;12.10;;;;;;;2.30;77.75;99170.30;106940;1273;109653;-78
2023/11/18 11:03:35;;;;;;;27.80;15.00;;;;;;;2.17;78.30;99312.46;102730;1283;636049;-77
2023/11/18 11:06:19;;;;;;;25.00;13.20;;;;;;;2.21;78.55;99320.02;104623;1272;94315;-77
2023/11/18 11:08:48;;;;;;;33.00;15.60;;;;;;;2.21;78.26;99322.33;104529;1270;95300;-77
2023/11/18 11:11:21;;;;;;;25.90;13.30;;;;;;;2.17;77.91;99332.96;104797;1263;106617;-80
2023/11/18 11:13:50;;;;;;;;;;;;;;;2.19;78.02;99332.53;105142;1262;94291;-79
2023/11/18 11:16:19;;;;;;;20.80;10.00;;;;;;;2.17;78.07;99332.27;105082;1260;330473;-75
2023/11/18 11:18:53;;;;;;;27.20;15.90;;;;;;;2.12;78.05;99328.56;105212;1260;94305;-78
2023/11/18 11:21:28;;;;;;;102.60;48.90;;;;;;;2.10;78.24;99330.92;105016;1255;94750;-81
2023/11/18 11:24:09;;;;;;;72.10;33.80;;;;;;;2.07;78.17;99333.98;105204;1254;107347;-79
2023/11/18 11:26:51;;;;;;;69.70;31.40;;;;;;;2.01;77.75;99331.21;105100;1257;95498;-76
2023/11/18 11:29:34;;;;;;;53.20;21.30;;;;;;;1.99;78.00;99333.55;105232;1261;108438;-74
2023/11/18 11:32:12;;;;;;;72.40;30.80;;;;;;;1.97;78.18;99334.48;105279;1254;95226;-73
2023/11/18 11:34:56;;;;;;;32.30;13.40;;;;;;;1.97;78.24;99342.89;106193;1254;96078;-73
2023/11/18 11:37:27;;;;;;;74.20;34.40;;;;;;;1.96;78.22;99344.15;105608;1257;108097;-73
2023/11/18 11:39:58;;;;;;;95.50;43.30;;;;;;;1.96;78.25;99349.36;108662;1252;95551;-71
2023/11/18 11:42:26;;;;;;;56.50;27.80;;;;;;;2.02;78.34;99346.92;108709;1252;108000;-72
2023/11/18 11:45:04;;;;;;;57.80;33.40;;;;;;;2.05;78.26;99345.75;108129;1252;94201;-74
2023/11/18 11:47:40;;;;;;;39.80;21.20;;;;;;;2.08;77.96;99342.16;108695;1252;93225;-72
2023/11/18 11:50:21;;;;;;;41.80;20.40;;;;;;;2.09;78.21;99348.09;105674;1256;108014;-73
2023/11/18 11:52:58;;;;;;;33.70;16.90;;;;;;;2.09;78.35;99354.23;105454;1257;95663;-74
2023/11/18 11:55:38;;;;;;;36.30;18.60;;;;;;;2.10;78.24;99360.13;105231;1260;107559;-74
2023/11/18 11:58:32;;;;;;;53.80;25.60;;;;;;;2.13;78.27;99358.27;105384;1253;95222;-73
2023/11/18 12:01:34;;;;;;;39.10;20.40;;;;;;;2.18;78.37;99362.15;105371;1256;95723;-74
2023/11/18 12:04:10;;;;;;;38.50;18.50;;;;;;;2.19;78.46;99363.66;105290;1256;110085;-73
2023/11/18 12:06:44;;;;;;;34.50;18.10;;;;;;;2.17;78.18;99363.39;105609;1259;95323;-73
2023/11/18 12:09:19;;;;;;;29.30;14.40;;;;;;;2.15;78.06;99366.61;105179;1269;106807;-74
2023/11/18 12:11:51;;;;;;;26.10;12.50;;;;;;;2.11;78.00;99369.88;105531;1255;95248;-73
2023/11/18 12:17:13;;;;;;;30.60;14.50;;;;;;;2.01;78.05;99370.02;105554;1255;108571;-79
2023/11/18 12:19:46;;;;;;;32.50;15.50;;;;;;;1.95;77.97;99376.36;105406;1253;95302;-79
2023/11/18 12:22:24;;;;;;;22.80;10.80;;;;;;;1.90;78.04;99378.60;108450;1253;109703;-74
2023/11/18 12:24:58;;;;;;;23.70;13.30;;;;;;;1.88;78.16;99385.31;108601;1253;93299;-75
2023/11/18 12:27:39;;;;;;;25.00;13.60;;;;;;;1.87;77.98;99386.23;108787;1251;92885;-74
2023/11/18 12:30:16;;;;;;;22.10;10.80;;;;;;;1.89;78.32;99392.64;108820;1252;108188;-83
2023/11/18 12:32:55;;;;;;;35.50;17.70;;;;;;;1.87;78.16;99395.48;108904;1252;95639;-75
2023/11/18 12:35:27;;;;;;;45.10;23.90;;;;;;;1.88;77.93;99395.45;108888;1252;107743;-74
2023/11/18 12:38:20;;;;;;;34.50;20.40;;;;;;;1.88;78.30;99395.98;108838;1252;92851;-73
2023/11/18 12:40:56;;;;;;;21.60;11.20;;;;;;;1.95;77.97;99403.30;108887;1252;93317;-72
2023/11/18 12:43:48;;;;;;;54.80;28.30;;;;;;;1.96;78.28;99409.39;108654;1253;108497;-73
2023/11/18 12:46:37;;;;;;;33.70;15.40;;;;;;;1.98;77.97;99411.95;108595;1254;93371;-74
2023/11/18 12:49:06;;;;;;;37.80;21.30;;;;;;;1.96;78.27;99419.87;108824;1252;107790;-73
2023/11/18 12:51:36;;;;;;;47.10;23.10;;;;;;;1.99;78.08;99424.69;108671;1252;92897;-74
2023/11/18 12:54:06;;;;;;;30.50;15.60;;;;;;;1.98;77.94;99424.36;108664;1253;93126;-74
2023/11/18 12:56:36;;;;;;;23.10;12.50;;;;;;;1.96;78.08;99428.45;108646;1253;109168;-72
2023/11/18 12:59:06;;;;;;;22.70;11.40;;;;;;;1.90;77.93;99426.88;108810;1253;95245;-73
2023/11/18 13:01:36;;;;;;;21.90;11.60;;;;;;;1.85;77.91;99431.23;108501;1253;107942;-72
2023/11/18 13:04:04;;;;;;;22.60;11.30;;;;;;;1.82;78.09;99429.94;108420;1252;92968;-73
2023/11/18 13:06:33;;;;;;;20.80;10.90;;;;;;;1.81;78.06;99435.39;108534;1253;93396;-73
2023/11/18 13:09:05;;;;;;;37.50;19.50;;;;;;;1.81;78.17;99445.89;108761;1252;108675;-73
2023/11/18 13:11:34;;;;;;;32.00;17.10;;;;;;;1.85;77.94;99449.06;108729;1252;95728;-73
2023/11/18 13:14:02;;;;;;;26.40;14.60;;;;;;;1.84;77.93;99452.25;108720;1252;107659;-73
2023/11/18 13:16:30;;;;;;;25.80;13.70;;;;;;;1.83;78.06;99453.49;108764;1252;92986;-73
2023/11/18 13:18:58;;;;;;;26.90;14.30;;;;;;;1.84;78.29;99456.08;108696;1253;93029;-73
2023/11/18 13:21:29;;;;;;;25.80;13.70;;;;;;;1.88;78.30;99465.59;108594;1252;108789;-73
2023/11/18 13:23:57;;;;;;;36.80;14.70;;;;;;;1.88;78.23;99462.96;108814;1252;95563;-75
2023/11/18 13:26:26;;;;;;;33.00;16.20;;;;;;;1.86;78.08;99465.83;108799;1253;107778;-73
2023/11/18 13:28:54;;;;;;;35.00;16.80;;;;;;;1.88;78.10;99466.98;108755;1252;93155;-73
2023/11/18 13:31:22;;;;;;;44.20;22.40;;;;;;;1.91;78.46;99471.60;108789;1252;92928;-75
2023/11/18 13:33:51;;;;;;;42.00;19.80;;;;;;;1.93;78.32;99476.63;108592;1252;108653;-76
2023/11/18 13:36:21;;;;;;;37.60;18.20;;;;;;;1.95;78.26;99475.70;108326;1253;256859;-75
2023/11/18 13:38:49;;;;;;;32.90;16.50;;;;;;;1.96;78.02;99473.41;108318;1256;107211;-76
2023/11/18 13:41:37;;;;;;;33.80;18.10;;;;;;;1.92;78.01;99475.42;108319;1260;92900;-76
2023/11/18 13:44:05;;;;;;;25.90;13.40;;;;;;;1.91;78.04;99476.87;108396;1256;92913;-77
2023/11/18 13:46:33;;;;;;;27.20;15.80;;;;;;;1.89;78.02;99484.46;108328;1256;108787;-77
2023/11/18 13:49:05;;;;;;;26.90;13.70;;;;;;;1.89;78.11;99490.05;108330;1257;95355;-76
2023/11/18 13:51:36;;;;;;;34.60;18.20;;;;;;;1.88;78.01;99493.73;108320;1256;107717;-74
2023/11/18 13:54:05;;;;;;;31.60;18.20;;;;;;;1.90;78.23;99495.09;108339;1256;93273;-73
2023/11/18 13:56:33;;;;;;;29.40;17.40;;;;;;;1.91;78.28;99495.06;108331;1258;92916;-73
2023/11/18 13:59:01;;;;;;;34.20;17.50;;;;;;;1.91;78.06;99504.52;108370;1257;108000;-79
2023/11/18 14:01:31;;;;;;;36.30;16.70;;;;;;;1.90;78.35;99508.55;108345;1256;95865;-75
2023/11/18 14:04:04;;;;;;;44.10;23.00;;;;;;;1.90;78.07;99515.73;108429;1256;106431;-77
2023/11/18 14:06:32;;;;;;;37.50;19.90;;;;;;;1.85;78.02;99525.16;108385;1256;93006;-78
2023/11/18 14:09:00;;;;;;;34.60;18.10;;;;;;;1.79;78.07;99527.42;108423;1256;92929;-80
2023/11/18 14:11:29;;;;;;;36.40;17.60;;;;;;;1.74;78.23;99531.75;108314;1256;108593;-75
2023/11/18 14:13:58;;;;;;;34.60;17.20;;;;;;;1.72;78.28;99532.88;108404;1257;94126;-74
2023/11/18 14:16:26;;;;;;;36.10;18.20;;;;;;;1.71;78.07;99537.27;108276;1257;107666;-78
2023/11/18 14:18:56;;;;;;;29.10;15.20;;;;;;;1.70;78.37;99539.57;108268;1257;92912;-76
2023/11/18 14:21:25;;;;;;;29.60;15.50;;;;;;;1.68;78.00;99540.84;108278;1257;93346;-76
2023/11/18 14:23:56;;;;;;;33.30;17.90;;;;;;;1.64;78.12;99542.17;108408;1256;108539;-76
2023/11/18 14:26:23;;;;;;;92.40;47.60;;;;;;;1.64;78.03;99548.13;108397;1256;95618;-76
2023/11/18 14:28:52;;;;;;;42.70;24.20;;;;;;;1.67;78.35;99553.12;108375;1256;107725;-75
2023/11/18 14:31:22;;;;;;;32.70;17.00;;;;;;;1.64;78.12;99555.28;108372;1256;93195;-76
2023/11/18 14:33:50;;;;;;;34.30;16.90;;;;;;;1.60;78.20;99554.53;108284;1256;93143;-73
2023/11/18 14:36:19;;;;;;;40.80;19.00;;;;;;;1.56;78.20;99560.23;108378;1256;108161;-72
2023/11/18 14:38:47;;;;;;;38.50;19.60;;;;;;;1.52;77.94;99559.48;108297;1256;95540;-76
2023/11/18 14:41:15;;;;;;;39.40;24.40;;;;;;;1.52;78.24;99563.85;108368;1256;107710;-75
2023/11/18 14:43:43;;;;;;;38.40;19.60;;;;;;;1.52;78.39;99566.63;108392;1256;92977;-77
2023/11/18 14:46:11;;;;;;;38.10;19.90;;;;;;;1.52;78.03;99564.72;108425;1258;93270;-72
2023/11/18 14:48:38;;;;;;;38.80;20.30;;;;;;;1.52;78.05;99572.58;108403;1256;107568;-72
2023/11/18 14:51:07;;;;;;;37.00;17.60;;;;;;;1.53;78.08;99576.93;108415;1257;94595;-72
2023/11/18 14:53:35;;;;;;;36.30;18.80;;;;;;;1.48;77.99;99577.23;108379;1256;107417;-75
2023/11/18 14:56:06;;;;;;;37.60;19.10;;;;;;;1.44;77.87;99576.30;108369;1256;93106;-73
2023/11/18 14:58:34;;;;;;;37.20;17.60;;;;;;;1.42;78.26;99585.77;108401;1256;94675;-74
2023/11/18 15:01:02;;;;;;;37.50;18.00;;;;;;;1.43;78.27;99584.17;108384;1256;108401;-69
2023/11/18 15:03:30;;;;;;;53.50;26.10;;;;;;;1.43;78.20;99591.86;108403;1256;95528;-69
2023/11/18 15:05:59;;;;;;;38.40;18.70;;;;;;;1.44;78.29;99598.14;108393;1257;107655;-69
2023/11/18 15:08:26;;;;;;;29.50;15.50;;;;;;;1.43;78.19;99603.91;108344;1257;92980;-70
2023/11/18 15:10:54;;;;;;;37.10;17.20;;;;;;;1.41;77.95;99604.16;108421;1257;93269;-74
2023/11/18 15:13:22;;;;;;;30.30;17.40;;;;;;;1.41;78.29;99608.17;108300;1256;107048;-70
2023/11/18 15:15:50;;;;;;;29.30;15.40;;;;;;;1.40;78.30;99607.69;108418;1257;95158;-70
2023/11/18 15:18:19;;;;;;;30.50;16.70;;;;;;;1.39;78.32;99611.73;108357;1256;107662;-70
2023/11/18 15:20:48;;;;;;;33.80;18.80;;;;;;;1.40;78.26;99616.96;108296;1257;94293;-71
2023/11/18 15:23:16;;;;;;;29.90;17.80;;;;;;;1.39;78.39;99620.98;108311;1256;94563;-70
2023/11/18 15:25:45;;;;;;;33.10;19.60;;;;;;;1.38;78.03;99621.38;108432;1256;109418;-70
2023/11/18 15:28:14;;;;;;;37.00;21.70;;;;;;;1.34;77.93;99627.59;108427;1256;94983;-70
2023/11/18 15:30:43;;;;;;;37.50;21.30;;;;;;;1.30;78.29;99631.18;108445;1256;107556;-71
2023/11/18 15:33:14;;;;;;;38.80;20.90;;;;;;;1.29;78.02;99638.20;108394;1256;94246;-71
2023/11/18 15:35:43;;;;;;;36.90;20.90;;;;;;;1.24;78.04;99641.81;108460;1256;94559;-71
2023/11/18 15:38:16;;;;;;;34.80;19.60;;;;;;;1.27;78.09;99642.44;108287;1257;110002;-72
2023/11/18 15:40:49;;;;;;;36.40;19.50;;;;;;;1.25;78.29;99643.17;108441;1256;95479;-70
2023/11/18 15:43:17;;;;;;;38.00;19.20;;;;;;;1.25;78.03;99649.48;108430;1256;107366;-71
2023/11/18 15:45:45;;;;;;;34.00;19.00;;;;;;;1.24;78.35;99651.26;108402;1258;94612;-70
2023/11/18 15:48:14;;;;;;;34.90;19.10;;;;;;;1.23;78.34;99653.03;108326;1256;94344;-70
2023/11/18 15:50:42;;;;;;;35.30;20.10;;;;;;;1.22;78.25;99655.86;108350;1256;108835;-70
2023/11/18 15:53:13;;;;;;;33.80;18.30;;;;;;;1.22;78.43;99662.13;108407;1256;95401;-70
2023/11/18 15:55:47;;;;;;;26.40;14.10;;;;;;;1.25;78.39;99667.46;108290;1256;107045;-70
2023/11/18 15:58:18;;;;;;;32.90;18.00;;;;;;;1.26;78.34;99675.48;108283;1256;94567;-69
2023/11/18 16:00:47;;;;;;;42.50;22.60;;;;;;;1.26;78.18;99673.05;108396;1256;94539;-69
2023/11/18 16:03:15;;;;;;;49.70;26.80;;;;;;;1.25;78.34;99676.54;108388;1256;111259;-69
2023/11/18 16:05:43;;;;;;;50.40;27.30;;;;;;;1.24;78.34;99673.10;108388;1256;95588;-70
2023/11/18 16:08:10;;;;;;;53.70;31.20;;;;;;;1.26;78.47;99675.48;108350;1257;107469;-71
2023/11/18 16:10:38;;;;;;;50.00;30.10;;;;;;;1.26;78.30;99672.87;108314;1260;95306;-73
2023/11/18 16:13:06;;;;;;;44.50;28.10;;;;;;;1.26;78.32;99670.94;108277;1259;94413;-71
2023/11/18 16:15:35;;;;;;;35.70;20.50;;;;;;;1.26;78.02;99672.14;108267;1256;110588;-72
2023/11/18 16:18:04;;;;;;;34.90;19.70;;;;;;;1.25;78.36;99672.00;108327;1258;94509;-72
2023/11/18 16:20:32;;;;;;;40.00;23.70;;;;;;;1.25;78.15;99680.05;108268;1256;107609;-71
2023/11/18 16:23:04;;;;;;;40.90;25.30;;;;;;;1.22;78.18;99682.91;108363;1256;94485;-72
2023/11/18 16:25:52;;;;;;;34.10;19.40;;;;;;;1.21;78.13;99688.55;108310;1257;94496;-72
2023/11/18 16:28:20;;;;;;;36.90;22.30;;;;;;;1.18;78.25;99686.67;108232;1257;109992;-72
2023/11/18 16:30:50;;;;;;;39.40;24.30;;;;;;;1.16;78.27;99684.27;108322;1256;95295;-72
2023/11/18 16:33:19;;;;;;;37.00;22.00;;;;;;;1.15;78.09;99685.53;108276;1257;107631;-72
2023/11/18 16:35:46;;;;;;;37.60;21.70;;;;;;;1.14;78.52;99686.63;108312;1257;94328;-72
2023/11/18 16:38:14;;;;;;;41.10;23.40;;;;;;;1.12;78.72;99693.82;108334;1257;95146;-72
2023/11/18 16:40:42;;;;;;;41.40;21.50;;;;;;;1.09;78.28;99694.05;108463;1256;110099;-72
2023/11/18 16:43:10;;;;;;;36.10;22.40;;;;;;;1.07;78.30;99696.71;108462;1256;95260;-72
2023/11/18 16:45:40;;;;;;;39.50;21.70;;;;;;;1.07;78.31;99701.98;108317;1256;107647;-72
2023/11/18 16:48:07;;;;;;;37.90;22.30;;;;;;;1.04;78.39;99702.91;108463;1256;94509;-71
2023/11/18 16:50:36;;;;;;;37.90;24.30;;;;;;;1.02;78.18;99698.06;108428;1257;94562;-72
2023/11/18 16:53:05;;;;;;;38.00;21.70;;;;;;;1.01;78.35;99701.75;108428;1256;109749;-72
2023/11/18 16:55:34;;;;;;;58.60;32.20;;;;;;;1.02;78.45;99705.05;108377;1258;95594;-72
2023/11/18 16:58:02;;;;;;;60.30;32.10;;;;;;;1.02;78.20;99712.02;108348;1256;107596;-72
2023/11/18 17:00:32;;;;;;;39.00;20.60;;;;;;;1.04;78.45;99711.10;108378;1257;94336;-72
2023/11/18 17:03:00;;;;;;;43.40;23.00;;;;;;;1.04;78.28;99713.39;108374;1256;94543;-72
2023/11/18 17:05:30;;;;;;;40.70;22.10;;;;;;;1.03;78.41;99716.89;108410;1256;110000;-71
2023/11/18 17:07:59;;;;;;;48.40;28.20;;;;;;;1.02;78.39;99718.14;108281;1256;94874;-72
2023/11/18 17:10:29;;;;;;;49.10;28.70;;;;;;;1.00;78.45;99721.69;108373;1259;107680;-72
2023/11/18 17:13:00;;;;;;;55.90;31.30;;;;;;;1.01;78.45;99722.38;108342;1262;94376;-72
2023/11/18 17:15:29;;;;;;;47.50;24.90;;;;;;;1.02;78.42;99724.07;108397;1257;94698;-72
2023/11/18 17:18:02;;;;;;;34.30;17.80;;;;;;;1.03;78.31;99727.20;108326;1256;110676;-71
2023/11/18 17:20:31;;;;;;;39.50;19.40;;;;;;;1.02;78.37;99731.44;108389;1258;95440;-72
2023/11/18 17:23:00;;;;;;;34.80;18.20;;;;;;;1.01;78.45;99728.46;108377;1256;107630;-72
2023/11/18 17:25:28;;;;;;;32.60;18.20;;;;;;;1.00;78.24;99730.26;108352;1257;94416;-72
2023/11/18 17:27:57;;;;;;;35.50;17.90;;;;;;;1.00;78.23;99734.63;108295;1256;94580;-72
2023/11/18 17:30:24;;;;;;;37.70;22.20;;;;;;;1.00;78.18;99736.89;108265;1256;109857;-72
2023/11/18 17:32:53;;;;;;;48.60;28.80;;;;;;;0.99;78.36;99741.80;108414;1258;94624;-71
2023/11/18 17:35:21;;;;;;;48.10;29.10;;;;;;;0.99;78.46;99743.71;108399;1256;107896;-72
2023/11/18 17:37:50;;;;;;;37.70;20.40;;;;;;;1.00;78.59;99743.52;108360;1258;94607;-71
2023/11/18 17:40:21;;;;;;;34.60;19.50;;;;;;;1.00;78.40;99743.52;108451;1256;94247;-72
2023/11/18 17:42:52;;;;;;;38.70;22.40;;;;;;;1.01;78.59;99743.67;108427;1256;109583;-71
2023/11/18 17:45:23;;;;;;;35.80;19.00;;;;;;;1.02;78.43;99750.28;108323;1256;95242;-72
2023/11/18 17:47:52;;;;;;;37.60;20.90;;;;;;;1.00;78.55;99754.17;108471;1256;107701;-71
2023/11/18 17:50:20;;;;;;;46.70;27.60;;;;;;;0.97;78.30;99745.33;108382;1256;94684;-72
2023/11/18 17:52:50;;;;;;;36.10;20.60;;;;;;;0.97;78.29;99743.77;108401;1256;94282;-73
2023/11/18 17:55:19;;;;;;;33.50;19.10;;;;;;;0.96;78.30;99746.58;108334;1256;109588;-72
2023/11/18 17:57:46;;;;;;;35.30;20.90;;;;;;;0.98;78.49;99751.61;108297;1256;95855;-73
2023/11/18 18:00:22;;;;;;;36.00;20.90;;;;;;;1.00;78.44;99750.33;108234;1257;107680;-71
2023/11/18 18:02:51;;;;;;;30.70;17.00;;;;;;;1.01;78.63;99751.18;108307;1256;94252;-72
2023/11/18 18:05:23;;;;;;;31.60;17.50;;;;;;;1.00;78.33;99747.90;108370;1257;94554;-72
2023/11/18 18:08:00;;;;;;;29.90;15.90;;;;;;;1.00;78.66;99740.05;108363;1257;109967;-71
2023/11/18 18:10:28;;;;;;;33.30;15.10;;;;;;;0.99;78.59;99741.27;108437;1256;95766;-72
2023/11/18 18:12:57;;;;;;;78.20;35.80;;;;;;;1.00;78.60;99744.23;108431;1256;107255;-72
2023/11/18 18:15:26;;;;;;;35.30;17.70;;;;;;;1.00;78.40;99745.10;108359;1256;94500;-71
2023/11/18 18:17:54;;;;;;;32.50;15.70;;;;;;;1.01;78.45;99748.20;108450;1256;94628;-71
2023/11/18 18:20:23;;;;;;;35.40;18.60;;;;;;;1.00;78.46;99744.58;108371;1256;109932;-72
2023/11/18 18:22:50;;;;;;;32.60;19.10;;;;;;;0.99;78.45;99744.25;108400;1256;95173;-71
2023/11/18 18:25:19;;;;;;;35.10;20.00;;;;;;;1.00;78.78;99740.21;108406;1256;106074;-71
2023/11/18 18:27:49;;;;;;;29.60;16.90;;;;;;;1.02;78.54;99743.98;108353;1257;94463;-71
2023/11/18 18:30:18;;;;;;;33.60;17.50;;;;;;;1.03;78.48;99739.25;108386;1256;94334;-72
2023/11/18 18:32:46;;;;;;;35.80;20.30;;;;;;;1.03;78.65;99739.08;108271;1256;110365;-72
2023/11/18 18:35:16;;;;;;;36.90;20.20;;;;;;;1.03;78.69;99735.06;108426;1256;95245;-72
2023/11/18 18:37:44;;;;;;;31.40;17.00;;;;;;;1.03;78.44;99729.98;108317;1256;107449;-71
2023/11/18 18:40:12;;;;;;;30.00;17.00;;;;;;;1.03;78.96;99724.75;108236;1256;94658;-72
2023/11/18 18:42:40;;;;;;;33.80;18.90;;;;;;;1.04;78.64;99723.86;108396;1257;94498;-72
2023/11/18 18:45:10;;;;;;;27.90;16.20;;;;;;;1.07;78.49;99727.48;108290;1256;108263;-72
2023/11/18 18:47:37;;;;;;;32.00;16.40;;;;;;;1.07;78.81;99725.55;108400;1258;95693;-72
2023/11/18 18:50:07;;;;;;;35.90;19.80;;;;;;;1.05;78.45;99720.17;108381;1256;107301;-71
2023/11/18 18:52:35;;;;;;;32.80;17.90;;;;;;;1.06;78.68;99722.59;108348;1256;94663;-72
2023/11/18 18:55:03;;;;;;;33.90;17.90;;;;;;;1.05;78.44;99716.15;108357;1257;94462;-72
2023/11/18 18:57:33;;;;;;;34.70;19.90;;;;;;;1.05;78.69;99713.55;108310;1257;109948;-72
2023/11/18 19:00:01;;;;;;;34.30;18.80;;;;;;;1.06;78.71;99710.36;108278;1257;95552;-72
2023/11/18 19:02:29;;;;;;;35.00;19.10;;;;;;;1.09;78.55;99711.88;108380;1260;107633;-71
2023/11/18 19:04:58;;;;;;;34.50;19.80;;;;;;;1.11;78.82;99711.15;108334;1257;94229;-71
2023/11/18 19:07:28;;;;;;;34.80;21.80;;;;;;;1.13;78.60;99715.81;108374;1257;94565;-72
2023/11/18 19:09:56;;;;;;;46.70;26.30;;;;;;;1.14;78.79;99727.65;108387;1257;110033;-71
2023/11/18 19:12:24;;;;;;;38.80;21.00;;;;;;;1.14;78.69;99735.53;108257;1256;95237;-72
2023/11/18 19:14:52;;;;;;;57.70;27.00;;;;;;;1.13;78.59;99725.41;108345;1256;106935;-72
2023/11/18 19:17:22;;;;;;;42.70;21.70;;;;;;;1.12;78.41;99718.09;108287;1257;94682;-71
2023/11/18 19:19:50;;;;;;;35.00;18.30;;;;;;;1.12;78.57;99723.70;108295;1256;94283;-72
2023/11/18 19:22:17;;;;;;;39.60;20.50;;;;;;;1.12;78.58;99728.95;108435;1256;109609;-72
2023/11/18 19:24:47;;;;;;;30.30;16.20;;;;;;;1.11;78.60;99729.30;108268;1256;95220;-72
2023/11/18 19:27:15;;;;;;;31.90;16.10;;;;;;;1.09;78.58;99726.39;108343;1258;107780;-73
2023/11/18 19:29:43;;;;;;;28.80;15.90;;;;;;;1.08;78.53;99727.80;108335;1256;94684;-72
2023/11/18 19:32:12;;;;;;;27.20;14.10;;;;;;;1.09;78.45;99729.88;108386;1256;94715;-72
2023/11/18 19:34:39;;;;;;;27.80;14.60;;;;;;;1.08;78.68;99730.74;108438;1256;109038;-72
2023/11/18 19:37:09;;;;;;;28.40;14.40;;;;;;;1.10;78.67;99735.96;108334;1256;95215;-72
2023/11/18 19:39:37;;;;;;;27.50;14.50;;;;;;;1.12;78.68;99741.34;108409;1256;108938;-72
2023/11/18 19:42:09;;;;;;;25.50;12.70;;;;;;;1.14;78.75;99746.88;108370;1256;94267;-72
2023/11/18 19:44:37;;;;;;;28.50;14.20;;;;;;;1.12;78.65;99743.08;108330;1257;94489;-72
2023/11/18 19:47:06;;;;;;;27.70;14.80;;;;;;;1.10;78.59;99731.58;108393;1256;109976;-71
2023/11/18 19:49:34;;;;;;;29.40;15.80;;;;;;;1.10;78.62;99728.98;108476;1256;95609;-71
2023/11/18 19:52:03;;;;;;;29.50;15.20;;;;;;;1.11;78.81;99737.85;108391;1256;107647;-71
2023/11/18 19:54:31;;;;;;;28.70;15.80;;;;;;;1.15;78.53;99735.85;108381;1256;94685;-71
2023/11/18 19:57:00;;;;;;;30.40;15.40;;;;;;;1.17;79.00;99732.84;108453;1256;94273;-71
2023/11/18 19:59:29;;;;;;;27.40;15.50;;;;;;;1.18;78.46;99734.02;108248;1256;109535;-71
2023/11/18 20:01:58;;;;;;;37.20;19.90;;;;;;;1.17;78.84;99740.16;108419;1256;95171;-71
2023/11/18 20:04:26;;;;;;;34.60;18.20;;;;;;;1.15;78.81;99740.55;108397;1256;108223;-71
2023/11/18 20:06:54;;;;;;;30.50;16.10;;;;;;;1.15;78.87;99736.02;108289;1256;94694;-71
2023/11/18 20:09:22;;;;;;;32.50;17.10;;;;;;;1.15;78.97;99730.61;108427;1257;94688;-72
2023/11/18 20:11:52;;;;;;;29.20;17.00;;;;;;;1.17;78.82;99740.88;108430;1256;110124;-71
2023/11/18 20:14:20;;;;;;;32.90;17.10;;;;;;;1.18;78.89;99749.41;108440;1257;95502;-71
2023/11/18 20:16:50;;;;;;;31.10;16.00;;;;;;;1.19;78.66;99752.34;108384;1256;107164;-72
2023/11/18 20:19:20;;;;;;;31.30;16.30;;;;;;;1.19;78.66;99746.40;108345;1257;94587;-71
2023/11/18 20:21:51;;;;;;;36.80;20.30;;;;;;;1.17;78.80;99744.71;108261;1257;94595;-72
2023/11/18 20:24:19;;;;;;;34.50;18.80;;;;;;;1.17;78.71;99751.19;108343;1260;109367;-73
2023/11/18 20:26:47;;;;;;;29.40;15.80;;;;;;;1.16;78.74;99753.10;108297;1256;95282;-72
2023/11/18 20:29:15;;;;;;;31.20;17.50;;;;;;;1.16;78.83;99748.59;108313;1257;107634;-72
2023/11/18 20:31:44;;;;;;;30.90;15.90;;;;;;;1.15;78.92;99738.30;108368;1257;94434;-72
2023/11/18 20:34:12;;;;;;;30.70;16.60;;;;;;;1.15;78.71;99731.65;108325;1259;94447;-72
2023/11/18 20:36:41;;;;;;;32.60;18.10;;;;;;;1.15;78.83;99734.98;108344;1256;109395;-73
2023/11/18 20:39:15;;;;;;;31.80;16.60;;;;;;;1.13;78.63;99739.04;108256;1259;95422;-72
2023/11/18 20:41:46;;;;;;;;;;;;;;;1.11;78.63;99737.68;108413;1256;107292;-72
2023/11/18 20:44:14;;;;;;;29.20;13.90;;;;;;;1.08;78.75;99722.72;108323;1257;94823;-73
2023/11/18 20:46:44;;;;;;;27.90;14.90;;;;;;;1.09;78.85;99727.60;108404;1256;94775;-73
2023/11/18 20:49:12;;;;;;;27.40;14.70;;;;;;;1.11;78.78;99739.44;108271;1257;108371;-70
2023/11/18 20:51:40;;;;;;;30.10;15.70;;;;;;;1.11;78.72;99744.33;108439;1256;95498;-70
2023/11/18 20:54:08;;;;;;;29.90;15.90;;;;;;;1.13;78.70;99739.23;108297;1257;107117;-70
2023/11/18 20:56:36;;;;;;;35.50;18.40;;;;;;;1.14;78.77;99741.46;108280;1258;94300;-70